Time;durP1;ratioP1;P1;durP2;ratioP2;P2;SDS_P1;SDS_P2;PMS_P1;PMS_P2;Temp;Humidity;BMP_temperature;BMP_pressure;BME280_temperature;BME280_humidity;BME280_pressure;Samples;Min_cycle;Max_cycle;Signal;HPM_P1;HPM_P2
2024/02/06 00:00:47;;;;;;;30.00;20.40;;;10.00;94.70;;;;;;5051725;28;20051;-52
2024/02/06 00:03:13;;;;;;;25.30;18.13;;;;;;;;;;5034969;28;20434;-54
2024/02/06 00:05:39;;;;;;;24.05;17.73;;;9.40;99.90;;;;;;5051895;28;20049;-52
2024/02/06 00:08:05;;;;;;;30.83;19.05;;;9.50;96.20;;;;;;5014339;28;20053;-52
2024/02/06 00:10:32;;;;;;;25.33;16.38;;;9.50;96.40;;;;;;5043757;28;20029;-53
2024/02/06 00:12:58;;;;;;;24.10;18.40;;;9.50;96.60;;;;;;5051776;28;20041;-51
2024/02/06 00:15:23;;;;;;;26.70;19.15;;;9.40;96.80;;;;;;5051716;28;20141;-52
2024/02/06 00:17:49;;;;;;;28.38;19.00;;;9.40;96.80;;;;;;5047107;28;20048;-54
2024/02/06 00:20:19;;;;;;;28.67;18.98;;;9.60;96.40;;;;;;5034963;28;20068;-52
2024/02/06 00:22:45;;;;;;;30.98;18.45;;;9.50;96.60;;;;;;5018777;28;20037;-52
2024/02/06 00:25:11;;;;;;;26.55;18.13;;;9.40;97.00;;;;;;5051650;28;20029;-53
2024/02/06 00:27:38;;;;;;;26.35;18.80;;;9.50;96.80;;;;;;5051441;28;20062;-52
2024/02/06 00:30:04;;;;;;;34.80;25.02;;;9.50;96.50;;;;;;5033834;28;20041;-53
2024/02/06 00:32:30;;;;;;;25.20;17.95;;;9.50;96.80;;;;;;5015092;28;20485;-53
2024/02/06 00:34:59;;;;;;;23.52;16.73;;;9.60;96.50;;;;;;5033666;28;20025;-53
2024/02/06 00:37:31;;;;;;;24.58;16.58;;;9.70;96.40;;;;;;5031342;28;20041;-52
2024/02/06 00:39:57;;;;;;;;;;;9.80;95.90;;;;;;5032078;28;20049;-52
2024/02/06 00:42:23;;;;;;;22.85;15.07;;;9.70;96.00;;;;;;5033620;28;19909;-53
2024/02/06 00:44:49;;;;;;;21.08;15.25;;;9.80;96.10;;;;;;5031492;28;20034;-53
2024/02/06 00:47:16;;;;;;;19.80;13.82;;;9.80;95.90;;;;;;5033455;28;20025;-52
2024/02/06 00:49:42;;;;;;;21.02;13.73;;;9.70;95.80;;;;;;5033535;28;20029;-52
2024/02/06 00:52:07;;;;;;;21.17;14.45;;;9.70;95.90;;;;;;5032141;28;20111;-53
2024/02/06 00:54:33;;;;;;;20.30;15.40;;;9.50;96.20;;;;;;5039210;28;20489;-53
2024/02/06 00:56:59;;;;;;;22.23;14.32;;;9.70;96.00;;;;;;5040450;28;20027;-53
2024/02/06 00:59:25;;;;;;;20.38;14.82;;;9.80;95.60;;;;;;5050855;28;20068;-52
2024/02/06 01:01:51;;;;;;;22.48;15.93;;;9.80;95.70;;;;;;5052289;28;20112;-52
2024/02/06 01:04:18;;;;;;;21.67;15.98;;;9.90;95.40;;;;;;5053194;28;20121;-54
2024/02/06 01:06:43;;;;;;;23.92;17.88;;;9.90;95.30;;;;;;5053050;28;20040;-53
2024/02/06 01:09:11;;;;;;;28.30;16.83;;;10.00;94.70;;;;;;5052945;28;20511;-53
2024/02/06 01:11:37;;;;;;;22.75;16.10;;;10.00;94.90;;;;;;5053099;28;20033;-53
2024/02/06 01:14:02;;;;;;;22.10;15.15;;;9.70;95.30;;;;;;5052928;28;20093;-52
2024/02/06 01:16:28;;;;;;;25.23;16.95;;;9.80;95.40;;;;;;5052907;28;20036;-53
2024/02/06 01:18:54;;;;;;;24.15;15.85;;;9.90;95.20;;;;;;5050602;28;20515;-52
2024/02/06 01:21:20;;;;;;;22.90;16.08;;;10.00;94.80;;;;;;5033994;28;20091;-52
2024/02/06 01:23:46;;;;;;;23.58;16.75;;;10.10;94.60;;;;;;5052745;28;20037;-52
2024/02/06 01:26:13;;;;;;;23.15;15.45;;;10.10;94.60;;;;;;5052610;28;20036;-53
2024/02/06 01:28:38;;;;;;;25.63;17.58;;;10.00;94.60;;;;;;5052645;28;20048;-52
2024/02/06 01:31:04;;;;;;;22.02;15.45;;;9.90;94.40;;;;;;5052596;28;20033;-53
2024/02/06 01:33:30;;;;;;;24.02;15.55;;;9.80;94.90;;;;;;5050469;28;20044;-52
2024/02/06 01:35:56;;;;;;;18.60;13.48;;;9.70;95.20;;;;;;5052659;28;20120;-53
2024/02/06 01:38:22;;;;;;;21.48;14.70;;;9.70;95.20;;;;;;5052414;28;20075;-52
2024/02/06 01:40:48;;;;;;;16.80;13.07;;;9.70;95.20;;;;;;5035568;28;20119;-53
2024/02/06 01:43:15;;;;;;;29.98;18.40;;;9.70;95.20;;;;;;5032476;28;20025;-52
2024/02/06 01:45:41;;;;;;;22.77;15.88;;;9.90;95.00;;;;;;5032456;28;20060;-52
2024/02/06 01:48:08;;;;;;;21.65;16.05;;;9.90;94.80;;;;;;5037501;28;20028;-52
2024/02/06 01:50:36;;;;;;;24.38;17.65;;;9.80;94.90;;;;;;5052249;28;20468;-52
2024/02/06 01:53:03;;;;;;;27.38;22.35;;;9.80;95.20;;;;;;5033819;28;20049;-53
2024/02/06 01:55:29;;;;;;;28.33;22.15;;;10.00;94.80;;;;;;5031059;28;20057;-53
2024/02/06 01:57:55;;;;;;;31.17;21.90;;;10.00;94.70;;;;;;5032300;28;20057;-53
2024/02/06 02:00:21;;;;;;;29.35;21.63;;;10.00;94.60;;;;;;5032209;28;20397;-52
2024/02/06 02:02:48;;;;;;;34.40;22.70;;;10.00;94.40;;;;;;5032256;28;20025;-52
2024/02/06 02:05:14;;;;;;;31.08;22.13;;;9.90;94.60;;;;;;5032084;28;20034;-53
2024/02/06 02:07:41;;;;;;;28.92;21.27;;;9.90;94.50;;;;;;5046755;28;20037;-52
2024/02/06 02:10:07;;;;;;;31.83;22.60;;;9.80;94.60;;;;;;5032837;28;20044;-53
2024/02/06 02:12:35;;;;;;;30.80;23.65;;;9.90;94.70;;;;;;5033794;28;20779;-52
2024/02/06 02:15:05;;;;;;;35.72;26.52;;;10.20;94.30;;;;;;5032065;28;20037;-52
2024/02/06 02:17:31;;;;;;;30.60;22.98;;;10.20;94.10;;;;;;5039725;28;20041;-52
2024/02/06 02:19:56;;;;;;;34.55;24.70;;;10.10;94.30;;;;;;5052023;28;20044;-53
2024/02/06 02:22:22;;;;;;;28.33;20.80;;;10.00;94.30;;;;;;5051937;28;20025;-52
2024/02/06 02:24:52;;;;;;;27.70;20.13;;;10.20;94.20;;;;;;5048158;28;20040;-54
2024/02/06 02:27:18;;;;;;;28.58;18.75;;;10.20;94.00;;;;;;5033209;28;20147;-52
2024/02/06 02:29:45;;;;;;;31.55;20.20;;;10.30;94.00;;;;;;5051897;28;20033;-52
2024/02/06 02:32:13;;;;;;;26.75;19.20;;;10.30;93.90;;;;;;5051897;28;20025;-53
2024/02/06 02:34:38;;;;;;;29.70;20.77;;;10.30;93.90;;;;;;5051971;28;20029;-53
2024/02/06 02:37:04;;;;;;;28.02;20.52;;;10.20;93.80;;;;;;5051695;28;20036;-52
2024/02/06 02:39:30;;;;;;;28.52;21.38;;;10.10;93.90;;;;;;5051643;28;20037;-53
2024/02/06 02:41:56;;;;;;;27.60;19.83;;;10.10;93.90;;;;;;5051868;28;20028;-52
2024/02/06 02:44:21;;;;;;;26.65;20.10;;;10.10;94.00;;;;;;5051779;28;20385;-52
2024/02/06 02:46:47;;;;;;;25.05;18.50;;;10.00;93.90;;;;;;5049688;28;20094;-53
2024/02/06 02:49:13;;;;;;;28.77;17.85;;;10.10;94.00;;;;;;5051583;28;20098;-52
2024/02/06 02:51:39;;;;;;;22.98;17.63;;;10.10;93.90;;;;;;5051463;28;20040;-52
2024/02/06 02:54:05;;;;;;;25.63;18.17;;;10.10;93.90;;;;;;5051680;28;20033;-52
2024/02/06 02:56:31;;;;;;;30.70;20.60;;;10.10;93.90;;;;;;5051611;28;20036;-53
2024/02/06 02:58:57;;;;;;;32.13;18.50;;;10.00;93.90;;;;;;5051520;28;20040;-53
2024/02/06 03:01:22;;;;;;;28.13;20.50;;;9.90;94.00;;;;;;5049554;28;20515;-53
2024/02/06 03:03:48;;;;;;;48.95;28.13;;;9.90;94.30;;;;;;5051581;28;20033;-52
2024/02/06 03:06:18;;;;;;;93.78;28.88;;;10.00;94.20;;;;;;5051634;28;20033;-51
2024/02/06 03:08:45;;;;;;;48.92;28.92;;;10.00;94.30;;;;;;5051563;28;20059;-52
2024/02/06 03:11:11;;;;;;;54.22;28.65;;;10.00;94.30;;;;;;5051408;28;20029;-52
2024/02/06 03:13:41;;;;;;;40.10;22.48;;;10.00;94.30;;;;;;5051417;28;20036;-53
2024/02/06 03:16:07;;;;;;;38.25;21.20;;;9.80;94.40;;;;;;5051487;28;20433;-53
2024/02/06 03:18:34;;;;;;;28.90;20.75;;;9.80;94.40;;;;;;5049288;28;20411;-53
2024/02/06 03:21:00;;;;;;;22.40;16.33;;;9.90;94.40;;;;;;5051548;28;20029;-52
2024/02/06 03:23:26;;;;;;;21.38;16.73;;;9.90;94.30;;;;;;5051684;28;20174;-53
2024/02/06 03:25:52;;;;;;;23.95;17.60;;;10.00;94.20;;;;;;5036282;28;20044;-54
2024/02/06 03:28:17;;;;;;;25.33;17.88;;;10.00;94.20;;;;;;5054969;28;20021;-53
2024/02/06 03:30:44;;;;;;;27.25;19.70;;;9.90;94.20;;;;;;5054833;28;20037;-51
2024/02/06 03:33:10;;;;;;;26.70;18.02;;;9.90;94.20;;;;;;5054914;28;20055;-53
2024/02/06 03:35:40;;;;;;;21.98;16.90;;;10.00;94.20;;;;;;5054724;28;20035;-52
2024/02/06 03:38:05;;;;;;;25.58;17.67;;;10.00;94.10;;;;;;5052594;28;20143;-52
2024/02/06 03:40:32;;;;;;;27.42;19.08;;;10.00;94.00;;;;;;5054616;28;20060;-53
2024/02/06 03:42:58;;;;;;;27.42;18.40;;;10.00;94.10;;;;;;5054745;28;20057;-52
2024/02/06 03:45:24;;;;;;;24.55;19.25;;;9.90;94.10;;;;;;5054666;28;20502;-53
2024/02/06 03:47:50;;;;;;;37.55;24.77;;;9.90;94.20;;;;;;5054555;28;20038;-52
2024/02/06 03:50:15;;;;;;;43.90;27.25;;;9.50;94.50;;;;;;5054500;28;20480;-52
2024/02/06 03:52:41;;;;;;;47.13;27.23;;;9.40;94.80;;;;;;5054414;28;20128;-53
2024/02/06 03:55:07;;;;;;;35.53;24.55;;;9.30;95.00;;;;;;5052429;28;20079;-53
2024/02/06 03:57:34;;;;;;;51.55;26.33;;;;;;;;;;5054365;28;20068;-54
2024/02/06 04:00:01;;;;;;;63.80;27.35;;;;;;;;;;5053120;28;20064;-54
2024/02/06 04:02:27;;;;;;;40.15;21.52;;;;;;;;;;5054283;28;20428;-52
2024/02/06 04:04:53;;;;;;;43.60;23.20;;;;;;;;;;5052902;28;20037;-53
2024/02/06 04:07:21;;;;;;;40.35;23.88;;;;;;;;;;5054144;28;20036;-53
2024/02/06 04:09:48;;;;;;;40.63;23.50;;;;;;;;;;5052045;28;20481;-53
2024/02/06 04:12:15;;;;;;;40.08;22.42;;;;;;;;;;5054185;28;20036;-53
2024/02/06 04:14:41;;;;;;;40.72;20.92;;;9.40;99.90;;;;;;5054017;28;20033;-53
2024/02/06 04:17:07;;;;;;;31.88;20.70;;;9.30;95.00;;;;;;5054014;28;20464;-51
2024/02/06 04:19:33;;;;;;;49.40;30.08;;;9.30;95.30;;;;;;5053980;28;20033;-53
2024/02/06 04:21:58;;;;;;;48.33;28.42;;;9.10;95.80;;;;;;5053840;28;20029;-53
2024/02/06 04:24:24;;;;;;;32.58;20.95;;;8.80;96.00;;;;;;5053845;28;20033;-53
2024/02/06 04:26:50;;;;;;;40.97;23.40;;;8.80;96.50;;;;;;5053847;28;20025;-53
2024/02/06 04:29:15;;;;;;;35.78;23.40;;;8.90;96.10;;;;;;5053878;28;20097;-52
2024/02/06 04:31:41;;;;;;;36.17;21.00;;;9.10;95.90;;;;;;5053603;28;20079;-52
2024/02/06 04:34:07;;;;;;;37.10;21.90;;;9.10;95.80;;;;;;5053566;28;20037;-53
2024/02/06 04:36:34;;;;;;;36.95;21.80;;;9.20;95.60;;;;;;5053528;28;20037;-52
2024/02/06 04:39:00;;;;;;;48.10;22.00;;;9.30;95.40;;;;;;5051382;28;20771;-52
2024/02/06 04:41:26;;;;;;;39.67;20.92;;;9.20;95.20;;;;;;5053577;28;20037;-52
2024/02/06 04:43:51;;;;;;;31.33;18.45;;;9.30;95.20;;;;;;5051465;28;20429;-53
2024/02/06 04:46:17;;;;;;;33.63;21.10;;;9.40;95.10;;;;;;5051440;28;20033;-53
2024/02/06 04:48:43;;;;;;;33.70;20.15;;;9.40;95.10;;;;;;5053360;28;20029;-53
2024/02/06 04:51:10;;;;;;;24.25;18.25;;;9.30;95.20;;;;;;5053217;28;20033;-53
2024/02/06 04:53:36;;;;;;;32.80;20.98;;;9.20;95.80;;;;;;5053138;28;20064;-53
2024/02/06 04:56:03;;;;;;;32.35;18.40;;;8.90;95.70;;;;;;5053253;28;20423;-53
2024/02/06 04:58:29;;;;;;;31.42;19.42;;;8.80;96.10;;;;;;5053071;28;20551;-53
2024/02/06 05:00:55;;;;;;;31.75;19.75;;;8.60;96.20;;;;;;5029061;28;20125;-52
2024/02/06 05:03:21;;;;;;;25.75;19.33;;;;;;;;;;5044026;28;20435;-54
2024/02/06 05:05:47;;;;;;;22.85;17.50;;;8.60;95.90;;;;;;5033578;28;20043;-52
2024/02/06 05:08:14;;;;;;;23.85;16.70;;;8.50;97.10;;;;;;5043180;28;20399;-52
2024/02/06 05:10:39;;;;;;;28.67;18.70;;;8.30;97.20;;;;;;5039944;28;20527;-53
2024/02/06 05:13:07;;;;;;;26.25;17.63;;;;;;;;;;5035612;28;20033;-52
2024/02/06 05:15:33;;;;;;;30.67;18.38;;;8.60;96.10;;;;;;5033115;28;20052;-53
2024/02/06 05:17:58;;;;;;;28.45;18.38;;;8.60;96.50;;;;;;5036659;28;20045;-52
2024/02/06 05:20:25;;;;;;;29.85;19.02;;;8.60;96.50;;;;;;5038629;28;20542;-53
2024/02/06 05:22:51;;;;;;;32.05;20.45;;;8.60;96.50;;;;;;5039333;28;20473;-53
2024/02/06 05:25:16;;;;;;;35.80;21.20;;;8.60;96.50;;;;;;5043895;28;20033;-53
2024/02/06 05:27:42;;;;;;;36.63;21.23;;;8.60;96.40;;;;;;5041957;28;20029;-52
2024/02/06 05:30:08;;;;;;;32.15;21.38;;;8.60;96.40;;;;;;5043965;28;20062;-52
2024/02/06 05:32:38;;;;;;;43.03;24.33;;;8.70;96.30;;;;;;5038457;28;20033;-52
2024/02/06 05:35:04;;;;;;;24.52;18.35;;;8.80;96.20;;;;;;5039886;28;20063;-52
2024/02/06 05:37:31;;;;;;;33.72;18.67;;;8.80;96.50;;;;;;5020713;28;20087;-53
2024/02/06 05:39:57;;;;;;;37.80;21.75;;;8.80;96.50;;;;;;5040286;28;20080;-54
2024/02/06 05:42:23;;;;;;;37.78;20.52;;;8.90;96.50;;;;;;5034501;28;20032;-51
2024/02/06 05:44:49;;;;;;;46.72;22.25;;;8.80;96.40;;;;;;5045235;28;20025;-51
2024/02/06 05:47:16;;;;;;;40.72;20.13;;;8.80;96.30;;;;;;5051671;28;20507;-53
2024/02/06 05:49:42;;;;;;;35.90;19.58;;;8.80;96.40;;;;;;5052285;28;20565;-52
2024/02/06 05:52:08;;;;;;;39.85;22.30;;;;;;;;;;5035622;28;20045;-52
2024/02/06 05:54:34;;;;;;;35.08;21.15;;;8.20;97.20;;;;;;5032325;28;20033;-52
2024/02/06 05:57:00;;;;;;;29.42;20.33;;;8.10;97.50;;;;;;5032405;28;20048;-51
2024/02/06 05:59:27;;;;;;;34.75;22.60;;;8.30;97.40;;;;;;5032251;28;20495;-51
2024/02/06 06:01:54;;;;;;;40.75;29.08;;;8.20;97.90;;;;;;5032347;28;20492;-49
2024/02/06 06:04:21;;;;;;;36.90;26.17;;;8.00;98.70;;;;;;5031731;28;20029;-54
2024/02/06 06:06:47;;;;;;;38.90;26.58;;;8.10;98.90;;;;;;5043903;28;20033;-53
2024/02/06 06:09:13;;;;;;;44.25;26.17;;;8.30;98.10;;;;;;5039833;28;20051;-51
2024/02/06 06:11:39;;;;;;;41.42;24.40;;;8.40;97.90;;;;;;5040618;28;20527;-53
2024/02/06 06:14:04;;;;;;;40.42;26.80;;;8.50;97.60;;;;;;5039532;28;20033;-52
2024/02/06 06:16:30;;;;;;;53.85;32.58;;;8.50;97.30;;;;;;5037497;28;20039;-52
2024/02/06 06:18:56;;;;;;;36.50;23.88;;;8.40;97.40;;;;;;5037154;28;20083;-53
2024/02/06 06:21:21;;;;;;;37.78;23.30;;;8.40;97.60;;;;;;5044474;28;20053;-54
2024/02/06 06:23:47;;;;;;;35.40;22.27;;;8.40;97.70;;;;;;5051970;28;20374;-53
2024/02/06 06:26:13;;;;;;;28.88;17.88;;;8.60;97.60;;;;;;5051991;28;20033;-54
2024/02/06 06:28:39;;;;;;;29.65;21.38;;;8.70;97.50;;;;;;5040583;28;20101;-52
2024/02/06 06:31:07;;;;;;;29.48;17.25;;;;;;;;;;5038136;28;20025;-51
2024/02/06 06:33:33;;;;;;;47.65;19.67;;;;;;;;;;5051322;28;20036;-54
2024/02/06 06:35:59;;;;;;;28.17;16.02;;;;;;;;;;5031727;28;20045;-52
2024/02/06 06:38:25;;;;;;;27.80;15.68;;;16.10;91.20;;;;;;5029702;28;20072;-53
2024/02/06 06:40:51;;;;;;;21.17;12.68;;;;;;;;;;5031989;28;20057;-52
2024/02/06 06:43:16;;;;;;;16.85;11.32;;;18.50;86.20;;;;;;5031893;28;20525;-54
2024/02/06 06:45:42;;;;;;;17.83;11.40;;;19.80;83.50;;;;;;5031962;28;20103;-51
2024/02/06 06:48:08;;;;;;;28.00;23.83;;;20.30;80.70;;;;;;5046548;28;20033;-51
2024/02/06 06:50:34;;;;;;;30.50;22.83;;;;;;;;;;5031812;28;20033;-54
2024/02/06 06:53:00;;;;;;;47.45;15.48;;;;;;;;;;5031666;28;20140;-52
2024/02/06 06:55:27;;;;;;;15.10;10.18;;;;;;;;;;5046407;28;20041;-54
2024/02/06 06:57:53;;;;;;;16.98;10.15;;;;;;;;;;5032868;28;20076;-52
2024/02/06 07:00:20;;;;;;;16.63;10.85;;;;;;;;;;5035627;28;20045;-51
2024/02/06 07:02:47;;;;;;;18.02;11.23;;;25.20;72.90;;;;;;5035478;28;20037;-51
2024/02/06 07:05:13;;;;;;;16.52;10.27;;;;;;;;;;5035446;28;20492;-52
2024/02/06 07:07:39;;;;;;;23.98;10.30;;;27.60;70.80;;;;;;5035555;28;20021;-53
2024/02/06 07:10:06;;;;;;;17.60;9.48;;;;;;;;;;5035321;28;20029;-49
2024/02/06 07:12:32;;;;;;;14.40;8.48;;;28.10;68.90;;;;;;5016569;28;20046;-48
2024/02/06 07:14:58;;;;;;;13.35;9.35;;;28.10;68.30;;;;;;5035366;28;20485;-51
2024/02/06 07:17:25;;;;;;;11.82;8.98;;;;;;;;;;5035294;28;20045;-50
2024/02/06 07:19:51;;;;;;;12.50;8.93;;;;;;;;;;5035281;28;20126;-49
2024/02/06 07:22:17;;;;;;;17.48;10.05;;;29.00;66.60;;;;;;5049674;28;20103;-51
2024/02/06 07:24:43;;;;;;;15.60;10.50;;;29.40;67.40;;;;;;5035220;28;20051;-49
2024/02/06 07:27:10;;;;;;;13.27;10.70;;;;;;;;;;5035095;28;20029;-51
2024/02/06 07:29:37;;;;;;;20.83;12.20;;;;;;;;;;5035007;28;20037;-50
2024/02/06 07:32:03;;;;;;;19.52;11.32;;;;;;;;;;5035097;28;20029;-50
2024/02/06 07:34:29;;;;;;;12.13;9.80;;;;;;;;;;5032883;28;20065;-53
2024/02/06 07:36:56;;;;;;;13.77;10.00;;;;;;;;;;5034904;28;20017;-50
2024/02/06 07:39:22;;;;;;;16.25;10.35;;;;;;;;;;5034819;28;20045;-52
2024/02/06 07:41:48;;;;;;;16.23;10.23;;;;;;;;;;5032408;28;20044;-52
2024/02/06 07:44:14;;;;;;;19.67;11.45;;;30.80;65.50;;;;;;4963481;28;20092;-51
2024/02/06 07:46:40;;;;;;;31.65;13.93;;;;;;;;;;5012614;28;20050;-51
2024/02/06 07:49:06;;;;;;;21.42;12.23;;;;;;;;;;4996245;28;20046;-51
2024/02/06 07:51:32;;;;;;;34.53;13.13;;;;;;;;;;5012510;28;20128;-51
2024/02/06 07:53:58;;;;;;;16.83;11.43;;;;;;;;;;5012426;28;20097;-50
2024/02/06 07:56:25;;;;;;;40.80;13.63;;;;;;;;;;4995968;28;20038;-53
2024/02/06 07:58:51;;;;;;;21.38;12.27;;;;;;;;;;5012478;28;20422;-49
2024/02/06 08:01:17;;;;;;;22.13;13.15;;;;;;;;;;5012401;28;20029;-51
2024/02/06 08:03:44;;;;;;;14.98;11.77;;;;;;;;;;5012308;28;20041;-53
2024/02/06 08:06:10;;;;;;;17.65;11.93;;;;;;;;;;4995855;28;20116;-52
2024/02/06 08:08:37;;;;;;;18.65;12.88;;;;;;;;;;4995583;28;20084;-54
2024/02/06 08:11:03;;;;;;;18.88;12.60;;;;;;;;;;4995208;28;20038;-50
2024/02/06 08:13:29;;;;;;;19.42;11.98;;;;;;;;;;5012169;28;20057;-53
2024/02/06 08:16:15;;;;;;;26.73;14.35;;;;;;;;;;5012101;28;20044;-52
2024/02/06 08:18:42;;;;;;;17.27;12.80;;;;;;;;;;4995311;28;20072;-52
2024/02/06 08:21:08;;;;;;;21.13;13.02;;;;;;;;;;5023197;28;20384;-53
2024/02/06 08:23:34;;;;;;;19.05;16.02;;;;;;;;;;5051587;28;20049;-52
2024/02/06 08:26:00;;;;;;;18.15;15.07;;;;;;;;;;5051658;28;20029;-51
2024/02/06 08:28:28;;;;;;;17.83;15.15;;;;;;;;;;5018206;28;20032;-54
2024/02/06 08:30:54;;;;;;;19.13;13.10;;;;;;;;;;5034765;28;20094;-48
2024/02/06 08:33:20;;;;;;;15.57;13.85;;;;;;;;;;5051457;28;20048;-52
2024/02/06 08:35:52;;;;;;;17.92;14.88;;;;;;;;;;5051430;28;20075;-51
2024/02/06 08:38:18;;;;;;;18.00;15.60;;;;;;;;;;5034555;28;20041;-53
2024/02/06 08:40:44;;;;;;;23.75;15.65;;;;;;;;;;5051247;28;20051;-50
2024/02/06 08:43:11;;;;;;;19.80;14.50;;;;;;;;;;5051342;28;20395;-52
2024/02/06 08:45:37;;;;;;;18.42;14.13;;;;;;;;;;5051279;28;20039;-53
2024/02/06 08:48:03;;;;;;;20.70;13.98;;;;;;;;;;5034662;28;20438;-51
2024/02/06 08:50:33;;;;;;;28.08;15.02;;;;;;;;;;5036280;28;20543;-52
2024/02/06 08:52:59;;;;;;;20.88;13.35;;;;;;;;;;5033230;28;20496;-50
2024/02/06 08:55:25;;;;;;;13.88;12.25;;;;;;;;;;5033459;28;20457;-52
2024/02/06 08:57:52;;;;;;;17.30;12.63;;;;;;;;;;5033342;28;20030;-54
2024/02/06 09:00:18;;;;;;;20.15;13.75;;;;;;;;;;5047990;28;20448;-51
2024/02/06 09:02:44;;;;;;;17.58;13.45;;;;;;;;;;5033070;28;20033;-52
2024/02/06 09:05:10;;;;;;;20.52;13.15;;;;;;;;;;5032911;28;20362;-49
2024/02/06 09:07:37;;;;;;;19.90;13.23;;;;;;;;;;5033136;28;20052;-51
2024/02/06 09:10:04;;;;;;;17.73;12.13;;;;;;;;;;5031030;28;20068;-49
2024/02/06 09:12:30;;;;;;;22.63;12.68;;;;;;;;;;5030664;28;20409;-50
2024/02/06 09:15:00;;;;;;;23.25;13.32;;;;;;;;;;5033011;28;20030;-50
2024/02/06 09:17:26;;;;;;;18.10;12.00;;;;;;;;;;5030980;28;20382;-54
2024/02/06 09:19:53;;;;;;;21.13;12.15;;;;;;;;;;5032805;28;20033;-50
2024/02/06 09:22:19;;;;;;;23.90;13.10;;;;;;;;;;5031975;28;20592;-48
2024/02/06 09:24:45;;;;;;;23.23;12.98;;;;;;;;;;5032706;28;20025;-53
2024/02/06 09:27:11;;;;;;;21.60;13.00;;;;;;;;;;5032694;28;20026;-51
2024/02/06 09:29:38;;;;;;;39.17;14.38;;;;;;;;;;5030479;28;20084;-54
2024/02/06 09:32:04;;;;;;;13.38;10.73;;;;;;;;;;5047368;28;20116;-51
2024/02/06 09:34:30;;;;;;;17.10;13.35;;;;;;;;;;5032716;28;20018;-48
2024/02/06 09:36:56;;;;;;;18.90;11.38;;;;;;;;;;5032604;28;20041;-50
2024/02/06 09:39:22;;;;;;;16.15;11.90;;;;;;;;;;5046703;28;20482;-49
2024/02/06 09:41:52;;;;;;;20.85;12.55;;;;;;;;;;5032558;28;20033;-50
2024/02/06 09:44:18;;;;;;;13.43;11.75;;;;;;;;;;5032503;28;20112;-51
2024/02/06 09:46:45;;;;;;;20.35;12.90;;;;;;;;;;5032481;28;20025;-51
2024/02/06 09:49:11;;;;;;;13.32;11.55;;;;;;;;;;5032499;28;20040;-50
2024/02/06 09:51:42;;;;;;;14.43;12.63;;;;;;;;;;5032040;28;20029;-52
2024/02/06 09:54:09;;;;;;;17.80;12.80;;;;;;;;;;5032472;28;20046;-50
2024/02/06 09:56:35;;;;;;;16.73;14.70;;;;;;;;;;5032352;28;20112;-53
2024/02/06 09:59:05;;;;;;;17.35;14.65;;;;;;;;;;5046913;28;20041;-53
2024/02/06 10:01:32;;;;;;;13.57;12.02;;;;;;;;;;5032303;28;20484;-51
2024/02/06 10:03:59;;;;;;;15.30;12.27;;;;;;;;;;5032270;28;20099;-52
2024/02/06 10:06:26;;;;;;;15.10;12.57;;;;;;;;;;5032189;28;20044;-50
2024/02/06 10:08:52;;;;;;;17.92;12.02;;;;;;;;;;5032100;28;20042;-54
2024/02/06 10:11:20;;;;;;;20.17;11.75;;;;;;;;;;5032270;28;20159;-48
2024/02/06 10:13:46;;;;;;;14.38;11.00;;;;;;;;;;5032211;28;20496;-52
2024/02/06 10:16:13;;;;;;;14.30;10.82;;;;;;;;;;5032284;28;20025;-50
2024/02/06 10:18:50;;;;;;;22.75;12.98;;;;;;;;;;5046610;28;20037;-54
2024/02/06 10:21:17;;;;;;;17.02;10.73;;;;;;;;;;5032142;28;20040;-53
2024/02/06 10:23:43;;;;;;;14.93;11.45;;;;;;;;;;5032014;28;20033;-53
2024/02/06 10:26:09;;;;;;;15.80;10.85;;;;;;;;;;5031932;28;20488;-54
2024/02/06 10:28:36;;;;;;;13.88;12.10;;;;;;;;;;5031934;28;20036;-53
2024/02/06 10:31:13;;;;;;;11.90;10.73;;;;;;;;;;5032085;28;20037;-52
2024/02/06 10:33:39;;;;;;;12.20;10.52;;;;;;;;;;5034337;28;20030;-53
2024/02/06 10:36:06;;;;;;;12.27;9.52;;;;;;;;;;5036049;28;20091;-51
2024/02/06 10:38:32;;;;;;;17.45;10.20;;;;;;;;;;5017447;28;20041;-54
2024/02/06 10:40:58;;;;;;;11.50;10.15;;;;;;;;;;5035794;28;20037;-53
2024/02/06 10:43:31;;;;;;;13.60;11.00;;;;;;;;;;5035928;28;20067;-50
2024/02/06 10:46:01;;;;;;;16.30;13.82;;;;;;;;;;5035876;28;20029;-50
2024/02/06 10:48:28;;;;;;;12.85;9.88;;;;;;;;;;5035743;28;20520;-55
2024/02/06 10:51:01;;;;;;;14.75;12.45;;;;;;;;;;5035748;28;20030;-51
2024/02/06 10:53:28;;;;;;;10.57;9.27;;;;;;;;;;5035457;28;20532;-50
2024/02/06 10:56:05;;;;;;;13.30;10.38;;;;;;;;;;5035536;28;20026;-53
2024/02/06 10:58:37;;;;;;;12.52;10.25;;;;;;;;;;5035654;28;20392;-54
2024/02/06 11:01:06;;;;;;;13.65;11.45;;;31.00;63.50;;;;;;5035595;28;20072;-50
2024/02/06 11:03:41;;;;;;;20.58;12.10;;;31.20;64.40;;;;;;5035602;28;20033;-54
2024/02/06 11:06:21;;;;;;;15.18;11.57;;;31.30;64.80;;;;;;5035594;28;20033;-52
2024/02/06 11:08:48;;;;;;;13.60;10.88;;;31.10;64.50;;;;;;5035486;28;20034;-53
2024/02/06 11:11:15;;;;;;;13.13;11.73;;;30.60;64.80;;;;;;5035511;28;20159;-52
2024/02/06 11:13:46;;;;;;;15.20;11.32;;;30.30;64.70;;;;;;5035377;28;20029;-52
2024/02/06 11:16:17;;;;;;;15.15;11.43;;;30.70;65.20;;;;;;5035438;28;20112;-51
2024/02/06 11:18:47;;;;;;;;;;;30.20;64.80;;;;;;5035835;28;20029;-53
2024/02/06 11:21:14;;;;;;;19.63;11.18;;;29.90;64.60;;;;;;5035402;28;19959;-48
2024/02/06 11:23:41;;;;;;;13.75;10.68;;;30.40;64.80;;;;;;5034771;28;20064;-54
2024/02/06 11:26:08;;;;;;;12.20;9.80;;;30.30;64.70;;;;;;5035063;28;20033;-53
2024/02/06 11:28:34;;;;;;;26.10;12.73;;;30.30;64.40;;;;;;5035111;28;20117;-49
2024/02/06 11:31:03;;;;;;;11.13;9.25;;;30.20;64.70;;;;;;5034978;28;20033;-54
2024/02/06 11:33:32;;;;;;;13.43;9.93;;;30.40;64.30;;;;;;5035003;28;20064;-54
2024/02/06 11:36:16;;;;;;;14.05;10.18;;;30.50;64.10;;;;;;5034914;28;20389;-52
2024/02/06 11:38:44;;;;;;;14.32;9.73;;;30.10;63.80;;;;;;5032826;28;20045;-55
2024/02/06 11:41:19;;;;;;;14.20;11.15;;;29.80;63.40;;;;;;5034811;28;20497;-50
2024/02/06 11:43:47;;;;;;;26.92;12.65;;;29.60;63.80;;;;;;5034379;28;20029;-56
2024/02/06 11:46:13;;;;;;;13.07;8.82;;;29.80;65.30;;;;;;5034202;28;20067;-53
2024/02/06 11:48:42;;;;;;;37.30;11.43;;;29.80;63.70;;;;;;5034705;28;20040;-56
2024/02/06 11:51:08;;;;;;;13.00;8.75;;;29.90;63.90;;;;;;5034606;28;20033;-49
2024/02/06 11:53:34;;;;;;;10.38;8.60;;;30.10;63.70;;;;;;5034459;28;20065;-55
2024/02/06 11:56:02;;;;;;;9.77;8.65;;;30.20;63.60;;;;;;5034535;28;20120;-50
2024/02/06 11:58:28;;;;;;;11.63;8.70;;;29.90;64.20;;;;;;5034475;28;20051;-53
2024/02/06 12:00:58;;;;;;;12.20;9.20;;;29.50;64.20;;;;;;5034517;28;20072;-53
2024/02/06 12:03:24;;;;;;;17.15;9.70;;;28.90;64.70;;;;;;5034535;28;20160;-53
2024/02/06 12:05:50;;;;;;;13.27;9.05;;;28.70;64.70;;;;;;5033783;28;20504;-54
2024/02/06 12:08:21;;;;;;;12.52;9.00;;;29.00;64.70;;;;;;5034334;28;20449;-50
2024/02/06 12:10:47;;;;;;;12.93;10.80;;;28.80;64.90;;;;;;5034271;28;20040;-49
2024/02/06 12:13:13;;;;;;;14.23;9.30;;;28.80;65.00;;;;;;5034145;28;20037;-54
2024/02/06 12:15:40;;;;;;;13.43;8.70;;;28.30;65.50;;;;;;5034249;28;20041;-55
2024/02/06 12:18:13;;;;;;;15.50;10.32;;;;;;;;;;5033953;28;20091;-51
2024/02/06 12:20:40;;;;;;;34.03;9.95;;;27.60;67.80;;;;;;5033995;28;20121;-53
2024/02/06 12:23:07;;;;;;;13.75;8.80;;;27.40;93.70;;;;;;5033779;28;20052;-54
2024/02/06 12:25:34;;;;;;;13.30;8.70;;;;;;;;;;5034051;28;20393;-54
2024/02/06 12:28:01;;;;;;;14.40;8.63;;;26.40;76.00;;;;;;5033584;28;20044;-53
2024/02/06 12:30:31;;;;;;;9.45;7.78;;;;;;;;;;5033941;28;20389;-50
2024/02/06 12:32:59;;;;;;;22.33;8.98;;;25.70;80.70;;;;;;5033868;28;20034;-51
2024/02/06 12:35:26;;;;;;;14.43;8.43;;;25.60;67.30;;;;;;5033802;28;20112;-51
2024/02/06 12:37:55;;;;;;;10.85;9.07;;;25.60;68.00;;;;;;5031765;28;20049;-51
2024/02/06 12:40:22;;;;;;;13.32;8.52;;;25.60;67.70;;;;;;5033695;28;20029;-50
2024/02/06 12:42:48;;;;;;;9.05;7.07;;;25.30;67.90;;;;;;5033767;28;20056;-48
2024/02/06 12:45:16;;;;;;;11.45;7.50;;;25.20;68.00;;;;;;5033543;28;20068;-51
2024/02/06 12:47:43;;;;;;;13.35;8.30;;;25.20;68.30;;;;;;5033632;28;20036;-51
2024/02/06 12:50:11;;;;;;;9.77;7.70;;;25.10;68.20;;;;;;5040013;28;20029;-56
2024/02/06 12:52:39;;;;;;;12.45;6.75;;;25.50;68.50;;;;;;4997784;28;20057;-52
2024/02/06 12:55:05;;;;;;;8.77;6.47;;;25.10;68.20;;;;;;5030595;28;20540;-51
2024/02/06 12:57:32;;;;;;;9.70;7.35;;;24.40;69.10;;;;;;5014241;28;20579;-53
2024/02/06 12:59:58;;;;;;;10.80;7.28;;;24.60;68.70;;;;;;5030145;28;20068;-52
2024/02/06 13:02:26;;;;;;;14.95;7.70;;;24.10;69.20;;;;;;5028786;28;20064;-52
2024/02/06 13:04:52;;;;;;;8.50;6.03;;;;;;;;;;5046786;28;20047;-54
2024/02/06 13:07:26;;;;;;;10.63;6.68;;;;;;;;;;5050840;28;20033;-52